Time;durP1;ratioP1;P1;durP2;ratioP2;P2;SDS_P1;SDS_P2;PMS_P1;PMS_P2;Temp;Humidity;BMP_temperature;BMP_pressure;BME280_temperature;BME280_humidity;BME280_pressure;Samples;Min_cycle;Max_cycle;Signal;HPM_P1;HPM_P2
2021/11/28 00:00:26;;;;;;;13.25;2.58;;;5.90;99.90;;;;;;4937038;29;20082;-86
2021/11/28 00:02:52;;;;;;;13.38;2.40;;;5.90;99.90;;;;;;4937071;29;20057;-86
2021/11/28 00:05:20;;;;;;;15.95;2.88;;;5.90;99.90;;;;;;4936793;29;20028;-86
2021/11/28 00:13:12;;;;;;;9.10;1.65;;;5.80;99.90;;;;;;4937112;29;20036;-86
2021/11/28 00:15:41;;;;;;;14.07;2.03;;;5.80;99.90;;;;;;4936922;29;20024;-86
2021/11/28 00:18:07;;;;;;;17.50;1.90;;;5.80;99.90;;;;;;4935606;29;20039;-85
2021/11/28 00:20:34;;;;;;;14.55;2.38;;;5.80;99.90;;;;;;4936897;29;20089;-87
2021/11/28 00:23:00;;;;;;;11.10;1.73;;;5.80;99.90;;;;;;4937123;29;20032;-86
2021/11/28 00:25:26;;;;;;;10.57;2.28;;;5.80;99.90;;;;;;4936545;29;20107;-86
2021/11/28 00:27:52;;;;;;;11.98;1.95;;;5.80;99.90;;;;;;4935414;29;20027;-86
2021/11/28 00:30:22;;;;;;;12.18;2.10;;;5.70;99.90;;;;;;4935403;29;20036;-85
2021/11/28 00:32:49;;;;;;;15.52;2.00;;;5.70;99.90;;;;;;4936678;29;20165;-86
2021/11/28 00:35:14;;;;;;;11.57;2.55;;;5.70;99.90;;;;;;4936388;29;20024;-87
2021/11/28 00:37:40;;;;;;;16.58;2.58;;;5.70;99.90;;;;;;4936572;29;20045;-86
2021/11/28 00:40:06;;;;;;;9.55;2.03;;;5.70;99.90;;;;;;4935980;29;20028;-86
2021/11/28 00:42:32;;;;;;;13.32;1.80;;;5.80;99.90;;;;;;4936034;29;20031;-86
2021/11/28 00:44:58;;;;;;;11.23;1.90;;;5.80;99.90;;;;;;4936246;29;20054;-86
2021/11/28 00:47:24;;;;;;;19.30;2.40;;;5.70;99.90;;;;;;4936240;29;20024;-87
2021/11/28 00:50:03;;;;;;;12.93;1.70;;;5.80;99.90;;;;;;4936687;29;20032;-86
2021/11/28 00:52:30;;;;;;;9.32;1.85;;;5.70;99.90;;;;;;4935111;29;20488;-86
2021/11/28 00:54:55;;;;;;;17.67;2.13;;;5.70;99.90;;;;;;4936319;29;20079;-86
2021/11/28 00:57:23;;;;;;;14.82;2.33;;;5.70;99.90;;;;;;4936148;29;20040;-86
2021/11/28 00:59:49;;;;;;;15.05;1.85;;;5.80;99.90;;;;;;4935726;29;20111;-87
2021/11/28 01:02:17;;;;;;;19.45;2.20;;;5.80;99.90;;;;;;4936174;29;20035;-87
2021/11/28 01:04:45;;;;;;;9.63;1.60;;;5.80;99.90;;;;;;4936315;29;20043;-87
2021/11/28 01:07:11;;;;;;;13.48;2.17;;;5.80;99.90;;;;;;4934674;29;20067;-86
2021/11/28 01:09:37;;;;;;;14.60;2.00;;;5.90;99.90;;;;;;4934704;29;20031;-86
2021/11/28 01:12:05;;;;;;;11.27;1.80;;;5.90;99.90;;;;;;4936309;29;20024;-87
2021/11/28 01:14:31;;;;;;;15.10;2.28;;;5.80;99.90;;;;;;4936010;29;20523;-86
2021/11/28 01:16:56;;;;;;;11.77;2.00;;;5.80;99.90;;;;;;4935589;29;20059;-86
2021/11/28 01:19:23;;;;;;;15.38;2.13;;;5.80;99.90;;;;;;4935385;29;20042;-87
2021/11/28 01:22:03;;;;;;;12.70;2.38;;;5.80;99.90;;;;;;4935628;29;20039;-86
2021/11/28 01:24:29;;;;;;;10.50;1.88;;;5.80;99.90;;;;;;4935447;29;20027;-86
2021/11/28 01:26:55;;;;;;;18.95;3.42;;;5.80;99.90;;;;;;4935453;29;20112;-86
2021/11/28 01:29:21;;;;;;;13.57;1.77;;;5.90;99.90;;;;;;4934056;29;20047;-86
2021/11/28 01:31:47;;;;;;;10.25;2.08;;;5.90;99.90;;;;;;4935434;29;20024;-86
2021/11/28 01:34:12;;;;;;;15.95;2.10;;;5.90;99.90;;;;;;4935529;29;20062;-86
2021/11/28 01:36:39;;;;;;;11.27;1.98;;;5.90;99.90;;;;;;4935200;29;20035;-87
2021/11/28 01:39:07;;;;;;;18.23;2.05;;;5.80;99.90;;;;;;4935066;29;20040;-87
2021/11/28 01:41:33;;;;;;;11.80;1.77;;;5.90;99.90;;;;;;4935292;29;20055;-86
2021/11/28 01:43:59;;;;;;;13.57;1.95;;;5.80;99.90;;;;;;4935478;29;20028;-87
2021/11/28 01:46:26;;;;;;;16.48;2.15;;;5.80;99.90;;;;;;4935286;29;20132;-86
2021/11/28 01:48:52;;;;;;;10.95;1.80;;;5.80;99.90;;;;;;4934155;29;20031;-86
2021/11/28 01:51:18;;;;;;;13.40;1.92;;;5.80;99.90;;;;;;4934938;29;20024;-86
2021/11/28 01:53:44;;;;;;;12.57;1.90;;;5.80;99.90;;;;;;4933636;29;20063;-86
2021/11/28 01:56:10;;;;;;;13.35;1.50;;;5.80;99.90;;;;;;4934897;29;20038;-86
2021/11/28 01:58:37;;;;;;;16.98;2.40;;;5.90;99.90;;;;;;4933437;29;20036;-86
2021/11/28 02:01:07;;;;;;;15.98;1.90;;;5.80;99.90;;;;;;4933581;29;20031;-86
2021/11/28 02:03:37;;;;;;;11.55;1.92;;;5.80;99.90;;;;;;4934960;29;20035;-86
2021/11/28 02:06:03;;;;;;;14.45;1.90;;;5.80;99.90;;;;;;4934791;29;20103;-86
2021/11/28 02:08:29;;;;;;;13.13;1.90;;;5.80;99.90;;;;;;4935009;29;20060;-86
2021/11/28 02:10:55;;;;;;;23.88;4.05;;;5.80;99.90;;;;;;4934140;29;20118;-86
2021/11/28 02:13:23;;;;;;;14.65;2.40;;;5.70;99.90;;;;;;4934630;29;20204;-86
2021/11/28 02:15:49;;;;;;;13.80;1.90;;;5.70;99.90;;;;;;4934445;29;20052;-86
2021/11/28 02:18:15;;;;;;;11.68;1.65;;;5.70;99.90;;;;;;4934412;29;20031;-86
2021/11/28 02:20:45;;;;;;;15.00;2.20;;;5.80;99.90;;;;;;4934754;29;20031;-87
2021/11/28 02:23:12;;;;;;;17.17;1.90;;;5.80;99.90;;;;;;4934460;29;20425;-86
2021/11/28 02:25:38;;;;;;;11.32;2.28;;;5.80;99.90;;;;;;4934346;29;20023;-87
2021/11/28 02:28:04;;;;;;;14.77;2.15;;;5.90;99.90;;;;;;4934362;29;20032;-86
2021/11/28 02:30:30;;;;;;;14.98;1.90;;;5.80;99.90;;;;;;4934503;29;20026;-86
2021/11/28 02:32:57;;;;;;;14.88;2.13;;;5.80;99.90;;;;;;4934428;29;20441;-86
2021/11/28 02:35:25;;;;;;;15.80;2.53;;;5.70;99.90;;;;;;4934293;29;20024;-86
2021/11/28 02:37:52;;;;;;;18.95;1.90;;;5.70;99.90;;;;;;4934093;29;20199;-86
2021/11/28 02:40:20;;;;;;;13.20;2.05;;;5.60;99.90;;;;;;4934062;29;20027;-87
2021/11/28 02:42:49;;;;;;;16.10;1.98;;;5.60;99.90;;;;;;4934583;29;20058;-86
2021/11/28 02:45:16;;;;;;;11.70;1.70;;;5.60;99.90;;;;;;4932834;29;20464;-86
2021/11/28 02:47:42;;;;;;;14.05;1.60;;;5.60;99.90;;;;;;4934211;29;20062;-86
2021/11/28 02:50:10;;;;;;;14.48;1.88;;;5.60;99.90;;;;;;4932762;29;20029;-86
2021/11/28 02:52:36;;;;;;;13.25;1.70;;;5.60;99.90;;;;;;4934417;29;20385;-86
2021/11/28 02:55:03;;;;;;;17.73;1.98;;;5.50;99.90;;;;;;4932354;29;20031;-86
2021/11/28 02:57:29;;;;;;;15.73;2.45;;;5.50;99.90;;;;;;4933675;29;20527;-86
2021/11/28 02:59:54;;;;;;;16.35;2.17;;;5.50;99.90;;;;;;4932677;29;20031;-86
2021/11/28 03:02:20;;;;;;;13.38;2.00;;;5.50;99.90;;;;;;4934093;29;20027;-86
2021/11/28 03:04:46;;;;;;;15.02;2.20;;;5.50;99.90;;;;;;4934119;29;20055;-86
2021/11/28 03:07:16;;;;;;;11.20;2.00;;;5.50;99.90;;;;;;4932833;29;20035;-86
2021/11/28 03:09:42;;;;;;;11.38;2.45;;;5.50;99.90;;;;;;4933644;29;20031;-86
2021/11/28 03:12:08;;;;;;;15.00;1.83;;;5.50;99.90;;;;;;4934004;29;20024;-86
2021/11/28 03:14:34;;;;;;;14.38;1.50;;;5.50;99.90;;;;;;4933826;29;20024;-86
2021/11/28 03:16:59;;;;;;;12.70;1.45;;;5.50;99.90;;;;;;4933580;29;20031;-87
2021/11/28 03:19:26;;;;;;;12.68;1.70;;;5.50;99.90;;;;;;4933605;29;20272;-86
2021/11/28 03:21:52;;;;;;;16.85;1.77;;;5.40;99.90;;;;;;4932275;29;20020;-86
2021/11/28 03:24:18;;;;;;;11.65;1.67;;;5.40;99.90;;;;;;4933595;29;20131;-86
2021/11/28 03:26:45;;;;;;;14.52;2.03;;;5.30;99.90;;;;;;4933694;29;20027;-86
2021/11/28 03:29:17;;;;;;;15.43;2.25;;;5.40;99.90;;;;;;4933914;29;20058;-86
2021/11/28 03:31:47;;;;;;;12.93;1.67;;;5.30;99.90;;;;;;4933492;29;20087;-86
2021/11/28 03:34:15;;;;;;;11.70;1.80;;;5.40;99.90;;;;;;4933397;29;20094;-86
2021/11/28 03:36:51;;;;;;;22.08;3.45;;;5.40;99.90;;;;;;4933829;29;20024;-87
2021/11/28 03:39:21;;;;;;;13.57;2.03;;;5.40;99.90;;;;;;4933484;29;20441;-86
2021/11/28 03:41:50;;;;;;;17.90;2.15;;;5.40;99.90;;;;;;4933497;29;20059;-86
2021/11/28 03:44:16;;;;;;;22.85;2.22;;;5.40;99.90;;;;;;4933607;29;20416;-86
2021/11/28 03:46:42;;;;;;;9.75;1.60;;;5.40;99.90;;;;;;4931994;29;20024;-86
2021/11/28 03:49:07;;;;;;;14.15;1.88;;;5.40;99.90;;;;;;4933376;29;20051;-86
2021/11/28 03:51:34;;;;;;;12.57;1.63;;;5.40;99.90;;;;;;4933688;29;20056;-86
2021/11/28 03:53:59;;;;;;;12.73;2.08;;;5.40;99.90;;;;;;4933459;29;20063;-86
2021/11/28 03:56:26;;;;;;;12.82;1.83;;;5.40;99.90;;;;;;4931711;29;20083;-86
2021/11/28 03:58:52;;;;;;;17.50;1.83;;;5.40;99.90;;;;;;4933214;29;20517;-86
2021/11/28 04:01:19;;;;;;;17.13;2.10;;;5.40;99.90;;;;;;4933275;29;20034;-86
2021/11/28 04:03:46;;;;;;;16.42;1.98;;;5.40;99.90;;;;;;4932949;29;20059;-86
2021/11/28 04:06:12;;;;;;;12.85;1.25;;;5.40;99.90;;;;;;4933087;29;20024;-86
2021/11/28 04:08:39;;;;;;;8.52;1.73;;;5.40;99.90;;;;;;4933058;29;20032;-86
2021/11/28 04:11:04;;;;;;;7.68;1.38;;;5.40;99.90;;;;;;4931794;29;20480;-86
2021/11/28 04:13:30;;;;;;;11.35;1.80;;;5.40;99.90;;;;;;4933418;29;20030;-86
2021/11/28 04:15:56;;;;;;;8.75;1.52;;;5.50;99.90;;;;;;4933327;29;20039;-86
2021/11/28 04:18:22;;;;;;;19.13;1.80;;;5.50;99.90;;;;;;4933204;29;20047;-86
2021/11/28 04:20:49;;;;;;;13.73;2.10;;;5.60;99.90;;;;;;4932922;29;20488;-85
2021/11/28 04:23:16;;;;;;;13.95;1.60;;;5.60;99.90;;;;;;4933089;29;20027;-86
2021/11/28 04:25:42;;;;;;;12.88;1.55;;;5.60;99.90;;;;;;4933031;29;20468;-86
2021/11/28 04:28:08;;;;;;;9.63;1.35;;;5.50;99.90;;;;;;4933036;29;20103;-86
2021/11/28 04:30:34;;;;;;;16.25;1.60;;;5.60;99.90;;;;;;4933010;29;20115;-86
2021/11/28 04:33:00;;;;;;;14.63;1.92;;;5.60;99.90;;;;;;4933814;29;20023;-86
2021/11/28 04:35:27;;;;;;;12.90;1.85;;;5.60;99.90;;;;;;4936688;29;20032;-86
2021/11/28 04:37:52;;;;;;;16.95;1.77;;;5.60;99.90;;;;;;4935215;29;20086;-87
2021/11/28 04:40:18;;;;;;;17.83;1.92;;;5.60;99.90;;;;;;4935002;29;20035;-86
2021/11/28 04:42:44;;;;;;;15.02;1.77;;;5.60;99.90;;;;;;4936385;29;20043;-86
2021/11/28 04:45:11;;;;;;;14.55;1.60;;;5.60;99.90;;;;;;4936302;29;20023;-86
2021/11/28 04:47:37;;;;;;;9.02;1.95;;;5.50;99.90;;;;;;4936386;29;20038;-86
2021/11/28 04:50:05;;;;;;;17.58;3.17;;;5.50;99.90;;;;;;4936320;29;20027;-86
2021/11/28 04:52:31;;;;;;;13.85;1.77;;;5.50;99.90;;;;;;4936034;29;20027;-86
2021/11/28 04:54:57;;;;;;;11.88;2.08;;;5.50;99.90;;;;;;4936028;29;20024;-86
2021/11/28 04:57:23;;;;;;;13.32;2.22;;;5.40;99.90;;;;;;4936026;29;20075;-86
2021/11/28 04:59:49;;;;;;;15.23;1.90;;;5.50;99.90;;;;;;4935911;29;20102;-87
2021/11/28 05:02:15;;;;;;;18.33;2.42;;;5.50;99.90;;;;;;4936022;29;20480;-86
2021/11/28 05:04:41;;;;;;;13.95;2.20;;;5.40;99.90;;;;;;4935978;29;20531;-86
2021/11/28 05:07:07;;;;;;;14.10;2.17;;;5.40;99.90;;;;;;4935970;29;20028;-88
2021/11/28 05:09:32;;;;;;;12.38;2.38;;;5.40;99.90;;;;;;4935966;29;20016;-86
2021/11/28 05:11:58;;;;;;;15.93;2.60;;;5.40;99.90;;;;;;4935823;29;20397;-86
2021/11/28 05:14:24;;;;;;;12.63;2.47;;;5.40;99.90;;;;;;4935833;29;20020;-86
2021/11/28 05:16:50;;;;;;;15.85;2.65;;;5.30;99.90;;;;;;4935935;29;20532;-86
2021/11/28 05:19:16;;;;;;;16.42;2.70;;;5.30;99.90;;;;;;4935694;29;20106;-86
2021/11/28 05:21:42;;;;;;;16.85;2.72;;;5.20;99.90;;;;;;4935669;29;20057;-86
2021/11/28 05:24:08;;;;;;;14.13;2.35;;;5.20;99.90;;;;;;4935646;29;20098;-86
2021/11/28 05:26:34;;;;;;;19.90;2.53;;;5.10;99.90;;;;;;4935506;29;20035;-86
2021/11/28 05:29:00;;;;;;;21.73;3.20;;;5.10;99.90;;;;;;4935610;29;20031;-86
2021/11/28 05:31:26;;;;;;;13.63;2.05;;;5.10;99.90;;;;;;4934118;29;20500;-86
2021/11/28 05:33:52;;;;;;;15.88;2.05;;;5.20;99.90;;;;;;4934267;29;20028;-86
2021/11/28 05:36:17;;;;;;;17.05;1.83;;;5.20;99.90;;;;;;4935344;29;20271;-86
2021/11/28 05:38:45;;;;;;;12.75;1.40;;;5.30;99.90;;;;;;4935154;29;20503;-86
2021/11/28 05:41:11;;;;;;;10.48;1.98;;;5.40;99.90;;;;;;4935257;29;20516;-86
2021/11/28 05:43:39;;;;;;;17.38;1.40;;;5.40;99.90;;;;;;4935271;29;20034;-86
2021/11/28 05:46:05;;;;;;;11.82;1.40;;;5.40;99.90;;;;;;4934411;29;20028;-86
2021/11/28 05:48:31;;;;;;;15.90;1.92;;;5.40;99.90;;;;;;4935229;29;20057;-86
2021/11/28 05:50:58;;;;;;;14.55;1.75;;;5.40;99.90;;;;;;4935289;29;20024;-85
2021/11/28 05:53:24;;;;;;;9.27;1.75;;;5.40;99.90;;;;;;4934938;29;20030;-87
2021/11/28 05:55:50;;;;;;;13.32;1.95;;;5.40;99.90;;;;;;4934886;29;20495;-86
2021/11/28 05:58:16;;;;;;;16.45;2.88;;;5.50;99.90;;;;;;4934863;29;20600;-86
2021/11/28 06:00:42;;;;;;;11.65;1.40;;;5.40;99.90;;;;;;4933712;29;20323;-85
2021/11/28 06:03:08;;;;;;;9.55;1.42;;;5.50;99.90;;;;;;4934697;29;20031;-86
2021/11/28 06:05:36;;;;;;;12.45;2.03;;;5.50;99.90;;;;;;4933468;29;20058;-86
2021/11/28 06:08:01;;;;;;;13.13;1.52;;;5.50;99.90;;;;;;4933325;29;20032;-86
2021/11/28 06:10:27;;;;;;;9.70;1.20;;;5.50;99.90;;;;;;4934331;29;20492;-86
2021/11/28 06:12:53;;;;;;;10.98;1.67;;;5.50;99.90;;;;;;4934780;29;20020;-86
2021/11/28 06:15:19;;;;;;;12.88;1.35;;;5.50;99.90;;;;;;4933167;29;20038;-86
2021/11/28 06:17:44;;;;;;;10.38;1.42;;;5.50;99.90;;;;;;4933225;29;20385;-86
2021/11/28 06:20:10;;;;;;;13.40;1.98;;;5.50;99.90;;;;;;4934580;29;20063;-86
2021/11/28 06:22:38;;;;;;;11.00;1.40;;;5.50;99.90;;;;;;4934571;29;20058;-86
2021/11/28 06:25:06;;;;;;;5.47;1.38;;;5.40;99.90;;;;;;4934466;29;20043;-86
2021/11/28 06:27:32;;;;;;;10.27;1.58;;;5.50;99.90;;;;;;4934313;29;20596;-86
2021/11/28 06:29:58;;;;;;;9.45;1.55;;;5.40;99.90;;;;;;4933149;29;20152;-86
2021/11/28 06:32:24;;;;;;;10.20;1.55;;;5.40;99.90;;;;;;4933057;29;20481;-87
2021/11/28 06:34:50;;;;;;;12.50;2.72;;;5.40;99.90;;;;;;4934252;29;20032;-86
2021/11/28 06:37:15;;;;;;;7.68;1.40;;;5.40;99.90;;;;;;4934427;29;20077;-85
2021/11/28 06:39:41;;;;;;;9.48;1.60;;;5.30;99.90;;;;;;4934118;29;20470;-86
2021/11/28 06:42:07;;;;;;;12.23;1.70;;;5.40;99.90;;;;;;4934325;29;20031;-86
2021/11/28 06:44:32;;;;;;;13.82;2.25;;;5.40;99.90;;;;;;4934054;29;20496;-86
2021/11/28 06:46:58;;;;;;;14.75;1.42;;;5.40;99.90;;;;;;4934100;29;20034;-86
2021/11/28 06:49:26;;;;;;;11.30;1.48;;;5.30;99.90;;;;;;4934177;29;20035;-85
2021/11/28 06:51:54;;;;;;;14.73;1.70;;;5.30;99.90;;;;;;4934075;29;20102;-86
2021/11/28 06:54:20;;;;;;;11.45;1.45;;;5.40;99.90;;;;;;4933918;29;20020;-86
2021/11/28 06:56:46;;;;;;;13.45;1.63;;;5.40;99.90;;;;;;4933678;29;20060;-86
2021/11/28 06:59:12;;;;;;;16.10;1.92;;;5.40;99.90;;;;;;4933985;29;20409;-89
2021/11/28 07:01:37;;;;;;;16.33;1.60;;;5.40;99.90;;;;;;4933764;29;20477;-89
2021/11/28 07:04:03;;;;;;;12.82;1.50;;;5.50;99.90;;;;;;4933929;29;20165;-89
2021/11/28 07:06:29;;;;;;;13.93;1.80;;;5.50;99.90;;;;;;4933987;29;20024;-88
2021/11/28 07:08:55;;;;;;;10.00;1.38;;;5.40;99.90;;;;;;4933918;29;20026;-89
2021/11/28 07:11:21;;;;;;;8.80;1.58;;;5.40;99.90;;;;;;4933981;29;20417;-88
2021/11/28 07:13:49;;;;;;;16.48;1.55;;;5.40;99.90;;;;;;4933862;29;20103;-89
2021/11/28 07:16:15;;;;;;;11.82;1.55;;;5.40;99.90;;;;;;4934089;29;20035;-89
2021/11/28 07:18:43;;;;;;;12.57;1.50;;;5.40;99.90;;;;;;4932585;29;20040;-89
2021/11/28 07:21:09;;;;;;;11.10;2.10;;;5.40;99.90;;;;;;4932501;29;20047;-89
2021/11/28 07:23:35;;;;;;;12.50;1.70;;;5.40;99.90;;;;;;4932305;29;20118;-89
2021/11/28 07:26:01;;;;;;;9.27;1.20;;;5.50;99.90;;;;;;4932578;29;20124;-90
2021/11/28 07:28:27;;;;;;;13.13;1.13;;;5.50;99.90;;;;;;4933092;29;20065;-89
2021/11/28 07:30:53;;;;;;;9.68;1.30;;;5.50;99.90;;;;;;4933454;29;20090;-90
2021/11/28 07:33:19;;;;;;;12.55;1.52;;;5.50;99.90;;;;;;4934397;29;20027;-89
2021/11/28 07:35:45;;;;;;;8.15;1.23;;;5.50;99.90;;;;;;4932673;29;20074;-90
2021/11/28 07:38:10;;;;;;;8.48;1.65;;;5.60;99.90;;;;;;4934262;29;20060;-90
2021/11/28 07:40:36;;;;;;;9.10;1.33;;;5.60;99.90;;;;;;4933669;29;20199;-90
2021/11/28 07:43:02;;;;;;;13.35;1.40;;;5.60;99.90;;;;;;4932888;29;20032;-90
2021/11/28 07:45:27;;;;;;;10.02;1.48;;;5.60;99.90;;;;;;4933529;29;20496;-90
2021/11/28 07:47:53;;;;;;;12.15;1.70;;;5.70;99.90;;;;;;4932829;29;20060;-89
2021/11/28 07:50:19;;;;;;;6.63;1.40;;;5.70;99.90;;;;;;4932927;29;20396;-88
2021/11/28 07:52:45;;;;;;;12.82;1.88;;;5.60;99.90;;;;;;4933204;29;20039;-90
2021/11/28 07:55:10;;;;;;;11.90;1.60;;;5.70;99.90;;;;;;4934303;29;20084;-90
2021/11/28 07:57:36;;;;;;;12.18;1.50;;;5.70;99.90;;;;;;4932297;29;20052;-89
2021/11/28 08:00:04;;;;;;;14.93;1.95;;;5.80;99.90;;;;;;4932206;29;20575;-89
2021/11/28 08:02:30;;;;;;;13.27;2.10;;;5.80;99.90;;;;;;4932357;29;20023;-88
2021/11/28 08:04:56;;;;;;;10.65;1.55;;;5.80;99.90;;;;;;4932382;29;20377;-90
2021/11/28 08:07:22;;;;;;;12.27;1.35;;;5.80;99.90;;;;;;4931914;29;20028;-90
2021/11/28 08:09:47;;;;;;;14.82;2.22;;;5.80;99.90;;;;;;4933753;29;20430;-90
2021/11/28 08:12:13;;;;;;;8.50;1.17;;;5.80;99.90;;;;;;4936417;29;20509;-90
2021/11/28 08:14:39;;;;;;;10.10;1.48;;;5.90;99.90;;;;;;4936243;29;20032;-90
2021/11/28 08:17:05;;;;;;;14.98;1.75;;;5.90;99.90;;;;;;4934261;29;20036;-91
2021/11/28 08:19:31;;;;;;;16.42;1.65;;;5.90;99.90;;;;;;4937256;29;20116;-89
2021/11/28 08:21:58;;;;;;;8.75;1.58;;;5.90;99.90;;;;;;4935110;29;20027;-90
2021/11/28 08:24:24;;;;;;;11.23;1.48;;;5.90;99.90;;;;;;4947348;29;20039;-90
2021/11/28 08:26:50;;;;;;;13.95;1.73;;;5.90;99.90;;;;;;4951137;29;20035;-89
2021/11/28 08:29:16;;;;;;;14.80;1.38;;;6.00;99.90;;;;;;4951269;29;20118;-90
2021/11/28 08:31:45;;;;;;;7.50;1.42;;;6.00;99.90;;;;;;4950897;29;20062;-89
2021/11/28 08:34:12;;;;;;;9.70;1.40;;;6.00;99.90;;;;;;4944915;29;20056;-90
2021/11/28 08:36:38;;;;;;;16.80;1.30;;;6.00;99.90;;;;;;4951084;29;20035;-89
2021/11/28 08:39:05;;;;;;;8.38;1.25;;;6.00;99.90;;;;;;4952169;29;20082;-90
2021/11/28 08:41:30;;;;;;;11.30;1.40;;;6.10;99.90;;;;;;4956968;28;20050;-89
2021/11/28 08:43:56;;;;;;;8.90;1.52;;;6.10;99.90;;;;;;4953237;29;20023;-90
2021/11/28 08:46:24;;;;;;;13.68;1.50;;;6.20;99.90;;;;;;4957411;28;20028;-90
2021/11/28 08:48:53;;;;;;;12.25;1.40;;;6.20;99.90;;;;;;4955985;28;20032;-90
2021/11/28 08:51:19;;;;;;;13.30;1.75;;;6.30;99.90;;;;;;4956408;29;20004;-89
2021/11/28 08:53:45;;;;;;;9.57;1.10;;;6.30;99.90;;;;;;4955790;28;20178;-91
2021/11/28 08:56:11;;;;;;;11.25;1.52;;;6.30;99.90;;;;;;4959699;28;20035;-90
2021/11/28 08:58:36;;;;;;;10.63;1.20;;;6.40;99.90;;;;;;4960323;28;20087;-90
2021/11/28 09:01:02;;;;;;;9.45;1.13;;;6.30;99.90;;;;;;4960138;28;20000;-89
2021/11/28 09:03:28;;;;;;;10.80;1.60;;;6.40;99.90;;;;;;4960166;28;20023;-89
2021/11/28 09:05:54;;;;;;;10.18;1.60;;;6.50;99.90;;;;;;4959360;28;20130;-89
2021/11/28 09:08:22;;;;;;;9.40;1.45;;;6.60;99.90;;;;;;4958931;28;20008;-89
2021/11/28 09:10:51;;;;;;;8.40;1.55;;;6.60;99.90;;;;;;4952857;29;20034;-88
2021/11/28 09:13:17;;;;;;;8.90;1.42;;;6.60;99.90;;;;;;4957117;28;20023;-88
2021/11/28 09:15:43;;;;;;;10.52;2.05;;;6.70;99.90;;;;;;4959550;29;20036;-88
2021/11/28 09:18:19;;;;;;;15.48;2.67;;;6.80;99.90;;;;;;4959141;28;20138;-88
2021/11/28 09:20:49;;;;;;;15.50;1.77;;;6.80;99.90;;;;;;4957632;28;20080;-88
2021/11/28 09:25:43;;;;;;;11.43;1.40;;;6.90;99.90;;;;;;4935444;29;20476;-89
2021/11/28 09:28:09;;;;;;;10.88;1.65;;;6.90;99.90;;;;;;4934872;29;20103;-88
2021/11/28 09:30:36;;;;;;;4.97;1.17;;;7.00;99.90;;;;;;4937219;29;20043;-89
2021/11/28 09:33:04;;;;;;;7.53;1.67;;;7.10;99.90;;;;;;4930878;29;20032;-88
2021/11/28 09:35:30;;;;;;;11.68;2.42;;;7.20;99.90;;;;;;4935891;29;20415;-88
2021/11/28 09:37:56;;;;;;;16.08;2.10;;;7.20;99.90;;;;;;4935059;29;20491;-88
2021/11/28 09:40:23;;;;;;;13.32;1.65;;;7.10;99.90;;;;;;4934584;29;20123;-88
2021/11/28 09:42:58;;;;;;;9.30;1.58;;;7.20;99.90;;;;;;4932793;29;20020;-89
2021/11/28 09:45:25;;;;;;;12.25;1.25;;;7.20;99.90;;;;;;4934876;29;20034;-89
2021/11/28 09:47:55;;;;;;;13.60;2.38;;;7.30;99.90;;;;;;4934065;29;20035;-88
2021/11/28 09:50:21;;;;;;;7.95;1.67;;;7.40;99.90;;;;;;4932618;29;20020;-88
2021/11/28 09:52:50;;;;;;;11.45;2.22;;;7.50;99.90;;;;;;4932600;29;20026;-88
2021/11/28 09:55:19;;;;;;;10.35;2.15;;;7.60;99.90;;;;;;4933749;29;20074;-88
2021/11/28 09:57:45;;;;;;;10.50;2.40;;;7.60;99.90;;;;;;4933106;29;20182;-88
2021/11/28 10:00:14;;;;;;;8.48;1.77;;;7.60;99.90;;;;;;4924473;29;20051;-88
2021/11/28 10:02:41;;;;;;;11.93;1.70;;;7.60;99.90;;;;;;4929477;29;20463;-89
2021/11/28 10:05:10;;;;;;;10.30;1.48;;;7.60;99.90;;;;;;4934728;29;20078;-88
2021/11/28 10:07:40;;;;;;;10.98;1.65;;;7.70;99.90;;;;;;4936929;29;20081;-89
2021/11/28 10:10:07;;;;;;;9.18;1.80;;;7.80;99.90;;;;;;4939406;29;20105;-88
2021/11/28 10:12:39;;;;;;;11.13;1.63;;;7.80;99.90;;;;;;4935058;29;20028;-89
2021/11/28 10:15:08;;;;;;;8.27;1.10;;;7.90;99.90;;;;;;4931162;29;20024;-89
2021/11/28 10:17:36;;;;;;;10.27;2.22;;;7.80;99.90;;;;;;4934013;29;20043;-88
2021/11/28 10:20:07;;;;;;;7.63;1.63;;;7.80;99.90;;;;;;4934053;29;20067;-90
2021/11/28 10:22:33;;;;;;;10.73;2.20;;;7.70;99.90;;;;;;4932091;29;20026;-88
2021/11/28 10:25:21;;;;;;;10.13;1.60;;;7.60;99.90;;;;;;4930937;29;20031;-89
2021/11/28 10:27:53;;;;;;;14.98;3.22;;;7.70;99.90;;;;;;4927947;29;20038;-90
2021/11/28 10:30:45;;;;;;;8.73;2.25;;;7.70;99.90;;;;;;4933654;29;20031;-93
2021/11/28 10:33:16;;;;;;;59.33;21.95;;;7.70;99.90;;;;;;4932825;29;20115;-92
2021/11/28 10:36:07;;;;;;;25.67;9.80;;;7.70;99.90;;;;;;4932625;29;20027;-94
2021/11/28 10:38:40;;;;;;;20.63;10.20;;;7.70;99.90;;;;;;4947508;29;20028;-90
2021/11/28 10:41:24;;;;;;;8.10;2.80;;;7.70;99.90;;;;;;4932959;29;20012;-92
2021/11/28 10:43:50;;;;;;;7.22;1.60;;;7.80;99.90;;;;;;4932687;29;20030;-91
2021/11/28 10:46:28;;;;;;;9.35;1.30;;;7.80;99.90;;;;;;4933799;29;20036;-91
2021/11/28 10:49:08;;;;;;;10.15;2.05;;;7.90;99.90;;;;;;4932662;29;20035;-91
2021/11/28 10:51:37;;;;;;;11.20;1.90;;;8.10;99.90;;;;;;4932686;29;20023;-92
2021/11/28 10:54:32;;;;;;;8.35;1.60;;;8.20;99.90;;;;;;4932274;29;20043;-89
2021/11/28 10:57:07;;;;;;;6.18;1.25;;;8.30;99.90;;;;;;4932014;29;20051;-89
2021/11/28 10:59:35;;;;;;;7.55;1.23;;;8.40;99.90;;;;;;4930931;29;20079;-91
2021/11/28 11:02:01;;;;;;;12.85;1.80;;;8.30;99.90;;;;;;4932109;29;20082;-91
2021/11/28 11:04:29;;;;;;;7.25;1.42;;;8.30;99.90;;;;;;4933457;29;20031;-93
2021/11/28 11:07:11;;;;;;;8.73;2.03;;;8.20;99.90;;;;;;4933188;29;20027;-91
2021/11/28 11:09:44;;;;;;;10.90;1.83;;;8.30;99.90;;;;;;4933625;29;20038;-91
2021/11/28 11:12:23;;;;;;;11.90;1.42;;;8.30;99.90;;;;;;4934976;29;20024;-91
2021/11/28 11:14:51;;;;;;;6.07;1.48;;;8.30;99.90;;;;;;4933574;29;20039;-92
2021/11/28 11:17:17;;;;;;;7.53;1.35;;;8.40;99.90;;;;;;4933339;29;20046;-92
2021/11/28 11:19:49;;;;;;;9.65;1.42;;;8.50;99.90;;;;;;4933419;29;20092;-92
2021/11/28 11:22:25;;;;;;;6.25;1.35;;;8.50;99.90;;;;;;4933065;29;20035;-92
2021/11/28 11:25:08;;;;;;;9.38;1.90;;;8.50;99.90;;;;;;4934653;29;20027;-92
2021/11/28 11:27:38;;;;;;;46.38;25.08;;;8.60;99.90;;;;;;4933488;29;20492;-90
2021/11/28 11:30:12;;;;;;;48.60;28.77;;;8.40;99.90;;;;;;4933359;29;20500;-90
2021/11/28 11:32:49;;;;;;;9.73;1.40;;;8.50;99.90;;;;;;4934261;29;20030;-90
2021/11/28 11:35:22;;;;;;;9.93;1.75;;;8.50;99.90;;;;;;4933231;29;20063;-92
2021/11/28 11:37:49;;;;;;;9.23;1.60;;;8.60;99.90;;;;;;4934223;29;20036;-91
2021/11/28 11:40:19;;;;;;;10.13;1.30;;;8.60;99.90;;;;;;4933067;29;20040;-91
2021/11/28 11:42:46;;;;;;;8.75;1.50;;;8.50;99.90;;;;;;4933017;29;20184;-92
2021/11/28 11:45:15;;;;;;;8.65;1.77;;;8.50;99.90;;;;;;4938524;29;20020;-92
2021/11/28 11:47:42;;;;;;;7.75;1.70;;;8.50;99.90;;;;;;4938873;29;20027;-93
2021/11/28 11:50:10;;;;;;;12.15;1.48;;;8.60;99.90;;;;;;4937206;29;20023;-93
2021/11/28 11:52:37;;;;;;;4.60;1.33;;;8.50;99.90;;;;;;4938796;29;20118;-93
2021/11/28 11:55:20;;;;;;;4.07;1.10;;;8.50;99.90;;;;;;4937261;29;20028;-92
2021/11/28 11:58:06;;;;;;;7.97;1.30;;;8.60;99.90;;;;;;4936946;29;20055;-80
2021/11/28 12:00:38;;;;;;;13.07;1.50;;;8.60;99.90;;;;;;4936749;29;20151;-80
2021/11/28 12:03:18;;;;;;;8.15;1.00;;;8.60;99.90;;;;;;4936526;29;20024;-80
2021/11/28 12:05:49;;;;;;;7.72;1.13;;;8.60;99.90;;;;;;4936555;29;20504;-80
2021/11/28 12:08:15;;;;;;;8.93;1.00;;;8.70;99.90;;;;;;4936338;29;20473;-80
2021/11/28 12:10:53;;;;;;;9.52;1.38;;;8.70;99.90;;;;;;4936621;29;20145;-81
2021/11/28 12:13:25;;;;;;;10.95;1.58;;;8.80;99.90;;;;;;4936524;29;20538;-80
2021/11/28 12:16:12;;;;;;;7.45;1.15;;;8.70;99.90;;;;;;4936471;29;20027;-79
2021/11/28 12:18:44;;;;;;;7.53;1.20;;;8.70;99.90;;;;;;4936048;29;20595;-72
2021/11/28 12:21:14;;;;;;;9.68;1.42;;;8.60;99.90;;;;;;4934940;29;20020;-75
2021/11/28 12:24:03;;;;;;;7.80;1.10;;;8.60;99.90;;;;;;4936177;29;20087;-80
2021/11/28 12:26:30;;;;;;;5.28;0.95;;;8.70;99.90;;;;;;4936112;29;20484;-79
2021/11/28 12:29:15;;;;;;;10.57;1.23;;;8.80;99.90;;;;;;4936488;29;20020;-85
2021/11/28 12:31:51;;;;;;;10.90;1.77;;;8.90;99.90;;;;;;4936670;29;20106;-83
2021/11/28 12:34:41;;;;;;;8.70;1.45;;;9.00;99.90;;;;;;4936427;29;20039;-83
2021/11/28 12:37:28;;;;;;;9.80;1.23;;;9.00;99.90;;;;;;4936385;29;20026;-83
2021/11/28 12:40:15;;;;;;;8.00;1.48;;;8.90;99.90;;;;;;4936160;29;20123;-83
2021/11/28 12:42:41;;;;;;;12.05;1.67;;;8.80;99.90;;;;;;4935406;29;20359;-83
2021/11/28 12:45:07;;;;;;;6.30;1.25;;;8.90;99.90;;;;;;4936390;29;20039;-83
2021/11/28 12:47:33;;;;;;;6.10;1.38;;;8.90;99.90;;;;;;4936451;29;20111;-83
2021/11/28 12:50:04;;;;;;;9.25;1.35;;;8.80;99.90;;;;;;4936280;29;20452;-82
2021/11/28 12:52:35;;;;;;;13.77;1.65;;;8.70;99.90;;;;;;4935810;29;20039;-83
2021/11/28 12:55:04;;;;;;;8.82;1.25;;;8.50;99.90;;;;;;4935430;29;20031;-83
2021/11/28 12:57:31;;;;;;;7.93;1.67;;;8.50;99.90;;;;;;4936022;29;20628;-82
2021/11/28 13:00:18;;;;;;;9.40;1.38;;;8.50;99.90;;;;;;4936535;29;20111;-82
2021/11/28 13:02:48;;;;;;;6.95;1.40;;;8.70;99.90;;;;;;4936101;29;20034;-82